sensor_id;sensor_type;location;lat;lon;timestamp;P1;durP1;ratioP1;P2;durP2;ratioP2
61091;SDS011;46975;51.898;11.444;2022-12-29T00:02:13;2.00;;;0.80;;
61091;SDS011;46975;51.898;11.444;2022-12-29T00:04:39;3.55;;;1.42;;
61091;SDS011;46975;51.898;11.444;2022-12-29T00:07:04;0.77;;;0.63;;
61091;SDS011;46975;51.898;11.444;2022-12-29T00:09:30;0.75;;;0.60;;
61091;SDS011;46975;51.898;11.444;2022-12-29T00:11:57;1.45;;;0.80;;
61091;SDS011;46975;51.898;11.444;2022-12-29T00:14:22;3.03;;;1.13;;
61091;SDS011;46975;51.898;11.444;2022-12-29T00:17:06;1.83;;;1.25;;
61091;SDS011;46975;51.898;11.444;2022-12-29T00:19:32;4.28;;;0.98;;
61091;SDS011;46975;51.898;11.444;2022-12-29T00:22:16;1.15;;;1.05;;
61091;SDS011;46975;51.898;11.444;2022-12-29T00:25:01;3.28;;;0.90;;
61091;SDS011;46975;51.898;11.444;2022-12-29T00:27:31;1.85;;;0.73;;
61091;SDS011;46975;51.898;11.444;2022-12-29T00:30:19;4.55;;;1.52;;
61091;SDS011;46975;51.898;11.444;2022-12-29T00:33:18;3.58;;;1.10;;
61091;SDS011;46975;51.898;11.444;2022-12-29T00:36:04;2.95;;;1.40;;
61091;SDS011;46975;51.898;11.444;2022-12-29T00:38:33;5.03;;;1.40;;
61091;SDS011;46975;51.898;11.444;2022-12-29T00:41:21;2.63;;;1.02;;
61091;SDS011;46975;51.898;11.444;2022-12-29T00:44:05;1.88;;;0.75;;
61091;SDS011;46975;51.898;11.444;2022-12-29T00:46:36;0.80;;;0.57;;
61091;SDS011;46975;51.898;11.444;2022-12-29T00:49:02;1.48;;;0.98;;
61091;SDS011;46975;51.898;11.444;2022-12-29T00:51:47;0.50;;;0.50;;
61091;SDS011;46975;51.898;11.444;2022-12-29T00:54:14;1.17;;;1.10;;
61091;SDS011;46975;51.898;11.444;2022-12-29T00:56:40;1.50;;;0.60;;
61091;SDS011;46975;51.898;11.444;2022-12-29T00:59:09;5.03;;;0.93;;
61091;SDS011;46975;51.898;11.444;2022-12-29T01:01:36;1.90;;;0.77;;
61091;SDS011;46975;51.898;11.444;2022-12-29T01:04:03;0.68;;;0.45;;
61091;SDS011;46975;51.898;11.444;2022-12-29T01:06:29;2.28;;;0.77;;
61091;SDS011;46975;51.898;11.444;2022-12-29T01:08:55;1.40;;;0.63;;
61091;SDS011;46975;51.898;11.444;2022-12-29T01:11:39;1.13;;;0.85;;
61091;SDS011;46975;51.898;11.444;2022-12-29T01:14:05;1.65;;;1.05;;
61091;SDS011;46975;51.898;11.444;2022-12-29T01:16:32;4.03;;;1.00;;
61091;SDS011;46975;51.898;11.444;2022-12-29T01:18:58;1.90;;;1.10;;
61091;SDS011;46975;51.898;11.444;2022-12-29T01:21:24;1.20;;;0.98;;
61091;SDS011;46975;51.898;11.444;2022-12-29T01:23:50;2.22;;;0.55;;
61091;SDS011;46975;51.898;11.444;2022-12-29T01:26:16;2.35;;;0.95;;
61091;SDS011;46975;51.898;11.444;2022-12-29T01:28:42;1.05;;;0.95;;
61091;SDS011;46975;51.898;11.444;2022-12-29T01:31:09;1.77;;;0.68;;
61091;SDS011;46975;51.898;11.444;2022-12-29T01:33:36;1.83;;;1.00;;
61091;SDS011;46975;51.898;11.444;2022-12-29T01:36:05;4.00;;;2.05;;
61091;SDS011;46975;51.898;11.444;2022-12-29T01:38:33;1.40;;;0.98;;
61091;SDS011;46975;51.898;11.444;2022-12-29T01:40:59;7.32;;;0.60;;
61091;SDS011;46975;51.898;11.444;2022-12-29T01:43:42;1.25;;;0.90;;
61091;SDS011;46975;51.898;11.444;2022-12-29T01:46:20;4.25;;;1.00;;
61091;SDS011;46975;51.898;11.444;2022-12-29T01:51:33;1.25;;;0.98;;
61091;SDS011;46975;51.898;11.444;2022-12-29T01:54:04;1.70;;;0.80;;
61091;SDS011;46975;51.898;11.444;2022-12-29T01:56:34;4.88;;;0.77;;
61091;SDS011;46975;51.898;11.444;2022-12-29T01:59:02;1.65;;;1.13;;
61091;SDS011;46975;51.898;11.444;2022-12-29T02:01:33;0.60;;;0.40;;
61091;SDS011;46975;51.898;11.444;2022-12-29T02:03:59;2.10;;;0.80;;
61091;SDS011;46975;51.898;11.444;2022-12-29T02:06:28;1.52;;;0.90;;
61091;SDS011;46975;51.898;11.444;2022-12-29T02:08:58;1.50;;;0.73;;
61091;SDS011;46975;51.898;11.444;2022-12-29T02:11:25;1.23;;;0.88;;
61091;SDS011;46975;51.898;11.444;2022-12-29T02:13:52;0.85;;;0.68;;
61091;SDS011;46975;51.898;11.444;2022-12-29T02:22:14;1.27;;;0.77;;
61091;SDS011;46975;51.898;11.444;2022-12-29T02:25:17;1.30;;;0.88;;
61091;SDS011;46975;51.898;11.444;2022-12-29T02:38:45;1.65;;;0.88;;
61091;SDS011;46975;51.898;11.444;2022-12-29T02:41:54;1.50;;;0.90;;
61091;SDS011;46975;51.898;11.444;2022-12-29T02:47:21;0.82;;;0.70;;
61091;SDS011;46975;51.898;11.444;2022-12-29T02:50:52;1.08;;;0.98;;
61091;SDS011;46975;51.898;11.444;2022-12-29T02:53:11;1.65;;;1.00;;
61091;SDS011;46975;51.898;11.444;2022-12-29T02:55:47;3.60;;;0.70;;
61091;SDS011;46975;51.898;11.444;2022-12-29T03:00:54;0.95;;;0.68;;
61091;SDS011;46975;51.898;11.444;2022-12-29T03:06:25;1.67;;;0.70;;
61091;SDS011;46975;51.898;11.444;2022-12-29T03:09:12;4.35;;;1.10;;
61091;SDS011;46975;51.898;11.444;2022-12-29T03:11:56;1.98;;;1.52;;
61091;SDS011;46975;51.898;11.444;2022-12-29T03:14:37;1.23;;;0.80;;
61091;SDS011;46975;51.898;11.444;2022-12-29T03:20:10;2.05;;;1.33;;
61091;SDS011;46975;51.898;11.444;2022-12-29T03:22:41;2.45;;;1.25;;
61091;SDS011;46975;51.898;11.444;2022-12-29T03:25:17;1.23;;;1.10;;
61091;SDS011;46975;51.898;11.444;2022-12-29T03:28:00;2.22;;;1.20;;
61091;SDS011;46975;51.898;11.444;2022-12-29T03:30:29;2.05;;;0.82;;
61091;SDS011;46975;51.898;11.444;2022-12-29T03:32:59;1.20;;;0.82;;
61091;SDS011;46975;51.898;11.444;2022-12-29T03:35:29;1.83;;;0.90;;
61091;SDS011;46975;51.898;11.444;2022-12-29T03:40:27;1.48;;;1.02;;
61091;SDS011;46975;51.898;11.444;2022-12-29T03:42:56;3.85;;;1.40;;
61091;SDS011;46975;51.898;11.444;2022-12-29T03:45:23;3.30;;;1.00;;
61091;SDS011;46975;51.898;11.444;2022-12-29T03:47:48;1.98;;;1.00;;
61091;SDS011;46975;51.898;11.444;2022-12-29T03:50:14;4.15;;;2.75;;
61091;SDS011;46975;51.898;11.444;2022-12-29T03:52:40;3.45;;;1.10;;
61091;SDS011;46975;51.898;11.444;2022-12-29T03:55:06;3.63;;;1.05;;
61091;SDS011;46975;51.898;11.444;2022-12-29T03:57:31;2.30;;;1.08;;
61091;SDS011;46975;51.898;11.444;2022-12-29T03:59:57;1.23;;;0.77;;
61091;SDS011;46975;51.898;11.444;2022-12-29T04:02:23;1.42;;;1.23;;
61091;SDS011;46975;51.898;11.444;2022-12-29T04:04:48;1.70;;;1.15;;
61091;SDS011;46975;51.898;11.444;2022-12-29T04:07:14;1.15;;;0.90;;
61091;SDS011;46975;51.898;11.444;2022-12-29T04:09:40;2.45;;;1.10;;
61091;SDS011;46975;51.898;11.444;2022-12-29T04:12:05;0.98;;;0.80;;
61091;SDS011;46975;51.898;11.444;2022-12-29T04:14:31;4.57;;;0.82;;
61091;SDS011;46975;51.898;11.444;2022-12-29T04:16:56;4.65;;;1.45;;
61091;SDS011;46975;51.898;11.444;2022-12-29T04:19:22;2.05;;;1.38;;
61091;SDS011;46975;51.898;11.444;2022-12-29T04:21:48;1.08;;;0.93;;
61091;SDS011;46975;51.898;11.444;2022-12-29T04:24:13;1.67;;;0.85;;
61091;SDS011;46975;51.898;11.444;2022-12-29T04:26:39;1.85;;;1.13;;
61091;SDS011;46975;51.898;11.444;2022-12-29T04:29:05;2.25;;;1.25;;
61091;SDS011;46975;51.898;11.444;2022-12-29T04:31:30;1.70;;;1.27;;
61091;SDS011;46975;51.898;11.444;2022-12-29T04:33:56;3.30;;;1.00;;
61091;SDS011;46975;51.898;11.444;2022-12-29T04:36:22;1.85;;;1.10;;
61091;SDS011;46975;51.898;11.444;2022-12-29T04:38:48;2.13;;;1.20;;
61091;SDS011;46975;51.898;11.444;2022-12-29T04:41:14;4.00;;;1.17;;
61091;SDS011;46975;51.898;11.444;2022-12-29T04:43:39;2.50;;;1.15;;
61091;SDS011;46975;51.898;11.444;2022-12-29T04:46:05;1.25;;;1.08;;
61091;SDS011;46975;51.898;11.444;2022-12-29T04:48:31;1.75;;;1.27;;
61091;SDS011;46975;51.898;11.444;2022-12-29T04:50:57;1.17;;;0.98;;
61091;SDS011;46975;51.898;11.444;2022-12-29T04:53:22;2.97;;;1.10;;
61091;SDS011;46975;51.898;11.444;2022-12-29T04:55:49;1.10;;;0.73;;
61091;SDS011;46975;51.898;11.444;2022-12-29T04:58:15;3.83;;;1.58;;
61091;SDS011;46975;51.898;11.444;2022-12-29T05:00:41;1.67;;;1.02;;
61091;SDS011;46975;51.898;11.444;2022-12-29T05:03:07;2.25;;;0.88;;
61091;SDS011;46975;51.898;11.444;2022-12-29T05:05:32;2.40;;;1.90;;
61091;SDS011;46975;51.898;11.444;2022-12-29T05:07:58;3.25;;;1.55;;
61091;SDS011;46975;51.898;11.444;2022-12-29T05:10:24;1.65;;;1.08;;
61091;SDS011;46975;51.898;11.444;2022-12-29T05:12:49;2.72;;;1.50;;
61091;SDS011;46975;51.898;11.444;2022-12-29T05:15:15;1.40;;;1.30;;
61091;SDS011;46975;51.898;11.444;2022-12-29T05:17:41;1.15;;;1.05;;
61091;SDS011;46975;51.898;11.444;2022-12-29T05:20:06;1.02;;;0.90;;
61091;SDS011;46975;51.898;11.444;2022-12-29T05:22:33;2.42;;;1.38;;
61091;SDS011;46975;51.898;11.444;2022-12-29T05:24:58;2.38;;;1.35;;
61091;SDS011;46975;51.898;11.444;2022-12-29T05:27:24;2.55;;;1.10;;
61091;SDS011;46975;51.898;11.444;2022-12-29T05:29:50;4.18;;;2.25;;
61091;SDS011;46975;51.898;11.444;2022-12-29T05:32:15;3.03;;;1.90;;
61091;SDS011;46975;51.898;11.444;2022-12-29T05:34:41;3.15;;;1.90;;
61091;SDS011;46975;51.898;11.444;2022-12-29T05:37:07;6.57;;;3.10;;
61091;SDS011;46975;51.898;11.444;2022-12-29T05:39:32;3.92;;;2.22;;
61091;SDS011;46975;51.898;11.444;2022-12-29T05:41:58;3.10;;;2.25;;
61091;SDS011;46975;51.898;11.444;2022-12-29T05:44:23;4.05;;;1.92;;
61091;SDS011;46975;51.898;11.444;2022-12-29T05:46:49;4.82;;;2.15;;
61091;SDS011;46975;51.898;11.444;2022-12-29T05:49:15;1.55;;;1.00;;
61091;SDS011;46975;51.898;11.444;2022-12-29T05:51:41;3.17;;;1.60;;
61091;SDS011;46975;51.898;11.444;2022-12-29T05:54:06;14.43;;;1.20;;
61091;SDS011;46975;51.898;11.444;2022-12-29T05:56:32;3.67;;;1.20;;
61091;SDS011;46975;51.898;11.444;2022-12-29T05:58:57;1.55;;;0.90;;
61091;SDS011;46975;51.898;11.444;2022-12-29T06:01:23;1.75;;;0.75;;
61091;SDS011;46975;51.898;11.444;2022-12-29T06:03:49;1.33;;;1.08;;
61091;SDS011;46975;51.898;11.444;2022-12-29T06:06:14;2.08;;;0.73;;
61091;SDS011;46975;51.898;11.444;2022-12-29T06:08:40;1.08;;;0.77;;
61091;SDS011;46975;51.898;11.444;2022-12-29T06:11:06;0.93;;;0.70;;
61091;SDS011;46975;51.898;11.444;2022-12-29T06:13:32;0.80;;;0.68;;
61091;SDS011;46975;51.898;11.444;2022-12-29T06:15:57;1.25;;;1.00;;
61091;SDS011;46975;51.898;11.444;2022-12-29T06:18:23;2.33;;;1.20;;
61091;SDS011;46975;51.898;11.444;2022-12-29T06:20:49;1.40;;;0.70;;
61091;SDS011;46975;51.898;11.444;2022-12-29T06:23:14;2.90;;;0.98;;
61091;SDS011;46975;51.898;11.444;2022-12-29T06:25:41;1.60;;;0.80;;
61091;SDS011;46975;51.898;11.444;2022-12-29T06:28:07;0.93;;;0.88;;
61091;SDS011;46975;51.898;11.444;2022-12-29T06:30:32;4.50;;;1.08;;
61091;SDS011;46975;51.898;11.444;2022-12-29T06:32:58;0.80;;;0.32;;
61091;SDS011;46975;51.898;11.444;2022-12-29T06:35:24;2.17;;;1.95;;
61091;SDS011;46975;51.898;11.444;2022-12-29T06:37:50;1.73;;;1.25;;
61091;SDS011;46975;51.898;11.444;2022-12-29T06:40:16;2.03;;;1.10;;
61091;SDS011;46975;51.898;11.444;2022-12-29T06:42:41;2.72;;;1.45;;
61091;SDS011;46975;51.898;11.444;2022-12-29T06:45:07;3.53;;;1.85;;
61091;SDS011;46975;51.898;11.444;2022-12-29T06:47:34;1.83;;;0.85;;
61091;SDS011;46975;51.898;11.444;2022-12-29T06:50:00;1.85;;;1.10;;
61091;SDS011;46975;51.898;11.444;2022-12-29T06:52:26;1.50;;;1.00;;
61091;SDS011;46975;51.898;11.444;2022-12-29T06:54:53;1.17;;;1.10;;
61091;SDS011;46975;51.898;11.444;2022-12-29T06:57:19;2.50;;;1.00;;
61091;SDS011;46975;51.898;11.444;2022-12-29T06:59:45;3.03;;;1.48;;
61091;SDS011;46975;51.898;11.444;2022-12-29T07:02:11;3.03;;;0.88;;
61091;SDS011;46975;51.898;11.444;2022-12-29T07:04:36;1.17;;;0.93;;
61091;SDS011;46975;51.898;11.444;2022-12-29T07:07:02;1.38;;;0.60;;
61091;SDS011;46975;51.898;11.444;2022-12-29T07:09:28;0.68;;;0.57;;
61091;SDS011;46975;51.898;11.444;2022-12-29T07:11:53;2.15;;;0.30;;
61091;SDS011;46975;51.898;11.444;2022-12-29T07:14:19;2.22;;;0.50;;
61091;SDS011;46975;51.898;11.444;2022-12-29T07:16:45;2.88;;;0.80;;
61091;SDS011;46975;51.898;11.444;2022-12-29T07:19:10;1.02;;;0.50;;
61091;SDS011;46975;51.898;11.444;2022-12-29T07:21:36;0.82;;;0.50;;
61091;SDS011;46975;51.898;11.444;2022-12-29T07:24:01;2.33;;;1.00;;
61091;SDS011;46975;51.898;11.444;2022-12-29T07:26:27;0.60;;;0.60;;
61091;SDS011;46975;51.898;11.444;2022-12-29T07:28:53;0.70;;;0.60;;
61091;SDS011;46975;51.898;11.444;2022-12-29T07:31:21;1.25;;;0.63;;
61091;SDS011;46975;51.898;11.444;2022-12-29T07:33:48;0.93;;;0.40;;
61091;SDS011;46975;51.898;11.444;2022-12-29T07:36:14;1.30;;;1.00;;
61091;SDS011;46975;51.898;11.444;2022-12-29T07:38:41;0.43;;;0.40;;
61091;SDS011;46975;51.898;11.444;2022-12-29T07:41:07;0.68;;;0.50;;
61091;SDS011;46975;51.898;11.444;2022-12-29T07:43:33;0.63;;;0.50;;
61091;SDS011;46975;51.898;11.444;2022-12-29T07:45:59;1.40;;;0.70;;
61091;SDS011;46975;51.898;11.444;2022-12-29T07:48:25;1.10;;;0.95;;
61091;SDS011;46975;51.898;11.444;2022-12-29T07:50:51;2.45;;;0.75;;
61091;SDS011;46975;51.898;11.444;2022-12-29T07:53:17;3.67;;;1.10;;
61091;SDS011;46975;51.898;11.444;2022-12-29T07:55:43;3.03;;;1.38;;
61091;SDS011;46975;51.898;11.444;2022-12-29T07:58:09;2.13;;;0.95;;
61091;SDS011;46975;51.898;11.444;2022-12-29T08:00:35;2.28;;;1.30;;
61091;SDS011;46975;51.898;11.444;2022-12-29T08:03:00;5.60;;;1.73;;
61091;SDS011;46975;51.898;11.444;2022-12-29T08:05:26;5.03;;;2.40;;
61091;SDS011;46975;51.898;11.444;2022-12-29T08:07:52;2.75;;;1.15;;
61091;SDS011;46975;51.898;11.444;2022-12-29T08:10:18;3.70;;;2.83;;
61091;SDS011;46975;51.898;11.444;2022-12-29T08:12:44;5.65;;;4.20;;
61091;SDS011;46975;51.898;11.444;2022-12-29T08:15:10;13.95;;;7.35;;
61091;SDS011;46975;51.898;11.444;2022-12-29T08:17:37;14.35;;;13.02;;
61091;SDS011;46975;51.898;11.444;2022-12-29T08:20:03;6.22;;;3.65;;
61091;SDS011;46975;51.898;11.444;2022-12-29T08:22:29;7.13;;;5.45;;
61091;SDS011;46975;51.898;11.444;2022-12-29T08:24:55;4.47;;;2.60;;
61091;SDS011;46975;51.898;11.444;2022-12-29T08:27:21;5.20;;;4.15;;
61091;SDS011;46975;51.898;11.444;2022-12-29T08:29:47;4.72;;;3.50;;
61091;SDS011;46975;51.898;11.444;2022-12-29T08:32:13;3.13;;;2.67;;
61091;SDS011;46975;51.898;11.444;2022-12-29T08:34:39;2.90;;;1.13;;
61091;SDS011;46975;51.898;11.444;2022-12-29T08:37:04;1.77;;;1.30;;
61091;SDS011;46975;51.898;11.444;2022-12-29T08:39:30;1.42;;;1.20;;
61091;SDS011;46975;51.898;11.444;2022-12-29T08:41:55;0.85;;;0.70;;
61091;SDS011;46975;51.898;11.444;2022-12-29T08:44:21;7.88;;;5.13;;
61091;SDS011;46975;51.898;11.444;2022-12-29T08:46:47;2.28;;;0.90;;
61091;SDS011;46975;51.898;11.444;2022-12-29T08:49:12;1.10;;;0.70;;
61091;SDS011;46975;51.898;11.444;2022-12-29T08:51:38;1.45;;;1.00;;
61091;SDS011;46975;51.898;11.444;2022-12-29T08:54:04;1.17;;;0.90;;
61091;SDS011;46975;51.898;11.444;2022-12-29T08:56:30;3.67;;;1.30;;
61091;SDS011;46975;51.898;11.444;2022-12-29T08:58:56;2.95;;;1.10;;
61091;SDS011;46975;51.898;11.444;2022-12-29T09:01:22;2.15;;;0.90;;
61091;SDS011;46975;51.898;11.444;2022-12-29T09:03:48;2.85;;;1.05;;
61091;SDS011;46975;51.898;11.444;2022-12-29T09:06:14;8.90;;;1.17;;
61091;SDS011;46975;51.898;11.444;2022-12-29T09:08:42;3.10;;;1.43;;
61091;SDS011;46975;51.898;11.444;2022-12-29T09:11:09;1.77;;;1.60;;
61091;SDS011;46975;51.898;11.444;2022-12-29T09:13:45;2.92;;;1.40;;
61091;SDS011;46975;51.898;11.444;2022-12-29T09:16:11;3.65;;;1.98;;
61091;SDS011;46975;51.898;11.444;2022-12-29T09:18:37;2.80;;;1.65;;
61091;SDS011;46975;51.898;11.444;2022-12-29T09:21:04;2.17;;;1.27;;
61091;SDS011;46975;51.898;11.444;2022-12-29T09:23:31;4.15;;;1.48;;
61091;SDS011;46975;51.898;11.444;2022-12-29T09:25:58;2.38;;;1.05;;
61091;SDS011;46975;51.898;11.444;2022-12-29T09:28:23;3.15;;;0.85;;
61091;SDS011;46975;51.898;11.444;2022-12-29T09:30:49;3.22;;;1.20;;
61091;SDS011;46975;51.898;11.444;2022-12-29T09:33:15;2.22;;;1.27;;
61091;SDS011;46975;51.898;11.444;2022-12-29T09:35:45;2.35;;;0.60;;
61091;SDS011;46975;51.898;11.444;2022-12-29T09:38:15;3.03;;;1.73;;
61091;SDS011;46975;51.898;11.444;2022-12-29T09:40:43;1.00;;;0.93;;
61091;SDS011;46975;51.898;11.444;2022-12-29T09:43:17;3.50;;;1.17;;
61091;SDS011;46975;51.898;11.444;2022-12-29T09:48:37;2.47;;;1.10;;
61091;SDS011;46975;51.898;11.444;2022-12-29T09:51:10;0.80;;;0.77;;
61091;SDS011;46975;51.898;11.444;2022-12-29T09:53:44;2.80;;;1.05;;
61091;SDS011;46975;51.898;11.444;2022-12-29T09:56:17;2.55;;;1.00;;
61091;SDS011;46975;51.898;11.444;2022-12-29T10:03:59;3.67;;;1.60;;
61091;SDS011;46975;51.898;11.444;2022-12-29T10:09:26;2.30;;;0.88;;
61091;SDS011;46975;51.898;11.444;2022-12-29T10:14:44;2.88;;;1.20;;
61091;SDS011;46975;51.898;11.444;2022-12-29T10:20:31;1.30;;;0.30;;
61091;SDS011;46975;51.898;11.444;2022-12-29T10:26:03;0.85;;;0.40;;
61091;SDS011;46975;51.898;11.444;2022-12-29T10:28:43;1.40;;;0.70;;
61091;SDS011;46975;51.898;11.444;2022-12-29T10:31:14;2.50;;;0.68;;
61091;SDS011;46975;51.898;11.444;2022-12-29T10:33:45;0.45;;;0.40;;
61091;SDS011;46975;51.898;11.444;2022-12-29T10:36:18;0.77;;;0.30;;
61091;SDS011;46975;51.898;11.444;2022-12-29T10:39:06;0.75;;;0.00;;
61091;SDS011;46975;51.898;11.444;2022-12-29T10:41:46;1.00;;;0.40;;
61091;SDS011;46975;51.898;11.444;2022-12-29T10:44:22;0.20;;;0.10;;
61091;SDS011;46975;51.898;11.444;2022-12-29T10:46:55;1.45;;;0.47;;
61091;SDS011;46975;51.898;11.444;2022-12-29T10:49:24;2.58;;;0.60;;
61091;SDS011;46975;51.898;11.444;2022-12-29T10:51:51;2.25;;;1.23;;
61091;SDS011;46975;51.898;11.444;2022-12-29T10:54:23;7.78;;;3.40;;
61091;SDS011;46975;51.898;11.444;2022-12-29T10:56:54;3.63;;;2.00;;
61091;SDS011;46975;51.898;11.444;2022-12-29T10:59:31;1.60;;;1.02;;
61091;SDS011;46975;51.898;11.444;2022-12-29T11:07:29;10.57;;;3.60;;
61091;SDS011;46975;51.898;11.444;2022-12-29T11:09:55;2.15;;;1.05;;
61091;SDS011;46975;51.898;11.444;2022-12-29T11:12:41;1.52;;;1.08;;
61091;SDS011;46975;51.898;11.444;2022-12-29T11:15:21;2.85;;;1.30;;
61091;SDS011;46975;51.898;11.444;2022-12-29T11:17:47;2.30;;;1.02;;
61091;SDS011;46975;51.898;11.444;2022-12-29T11:22:56;1.67;;;1.10;;
61091;SDS011;46975;51.898;11.444;2022-12-29T11:25:22;0.80;;;0.20;;
61091;SDS011;46975;51.898;11.444;2022-12-29T11:28:13;2.00;;;0.40;;
61091;SDS011;46975;51.898;11.444;2022-12-29T11:30:41;0.52;;;0.25;;
61091;SDS011;46975;51.898;11.444;2022-12-29T11:33:07;1.55;;;0.40;;
61091;SDS011;46975;51.898;11.444;2022-12-29T11:35:43;1.35;;;0.40;;
61091;SDS011;46975;51.898;11.444;2022-12-29T11:38:30;1.80;;;1.20;;
61091;SDS011;46975;51.898;11.444;2022-12-29T11:41:02;2.45;;;0.88;;
61091;SDS011;46975;51.898;11.444;2022-12-29T11:45:59;3.53;;;1.73;;
61091;SDS011;46975;51.898;11.444;2022-12-29T11:48:29;5.45;;;3.67;;
61091;SDS011;46975;51.898;11.444;2022-12-29T11:51:04;5.10;;;3.45;;
61091;SDS011;46975;51.898;11.444;2022-12-29T11:53:35;2.78;;;1.80;;
61091;SDS011;46975;51.898;11.444;2022-12-29T11:56:04;2.92;;;1.50;;
61091;SDS011;46975;51.898;11.444;2022-12-29T11:58:34;2.75;;;0.98;;
61091;SDS011;46975;51.898;11.444;2022-12-29T12:01:02;2.53;;;1.30;;
61091;SDS011;46975;51.898;11.444;2022-12-29T12:03:35;1.48;;;0.93;;
61091;SDS011;46975;51.898;11.444;2022-12-29T12:06:05;2.33;;;1.33;;
61091;SDS011;46975;51.898;11.444;2022-12-29T12:08:51;1.98;;;1.38;;
61091;SDS011;46975;51.898;11.444;2022-12-29T12:11:21;1.77;;;1.08;;
61091;SDS011;46975;51.898;11.444;2022-12-29T12:14:20;3.03;;;1.17;;
61091;SDS011;46975;51.898;11.444;2022-12-29T12:17:14;2.20;;;1.30;;
61091;SDS011;46975;51.898;11.444;2022-12-29T12:19:57;4.93;;;2.63;;
61091;SDS011;46975;51.898;11.444;2022-12-29T12:22:30;1.23;;;0.50;;
61091;SDS011;46975;51.898;11.444;2022-12-29T12:30:23;4.43;;;1.63;;
61091;SDS011;46975;51.898;11.444;2022-12-29T12:32:53;1.85;;;0.63;;
61091;SDS011;46975;51.898;11.444;2022-12-29T12:38:23;1.42;;;0.95;;
61091;SDS011;46975;51.898;11.444;2022-12-29T12:41:06;4.40;;;1.33;;
61091;SDS011;46975;51.898;11.444;2022-12-29T12:43:57;1.63;;;0.88;;
61091;SDS011;46975;51.898;11.444;2022-12-29T13:00:37;2.72;;;0.30;;
61091;SDS011;46975;51.898;11.444;2022-12-29T13:03:50;3.80;;;1.70;;
61091;SDS011;46975;51.898;11.444;2022-12-29T13:06:35;1.73;;;0.35;;
61091;SDS011;46975;51.898;11.444;2022-12-29T13:09:14;1.27;;;0.70;;
61091;SDS011;46975;51.898;11.444;2022-12-29T13:14:51;2.20;;;1.20;;
61091;SDS011;46975;51.898;11.444;2022-12-29T13:17:30;4.15;;;1.35;;
61091;SDS011;46975;51.898;11.444;2022-12-29T13:20:16;6.20;;;1.25;;
61091;SDS011;46975;51.898;11.444;2022-12-29T13:25:27;1.52;;;0.50;;
61091;SDS011;46975;51.898;11.444;2022-12-29T13:31:00;2.38;;;0.20;;
61091;SDS011;46975;51.898;11.444;2022-12-29T13:36:36;1.67;;;0.70;;
61091;SDS011;46975;51.898;11.444;2022-12-29T13:39:09;3.42;;;0.70;;
61091;SDS011;46975;51.898;11.444;2022-12-29T13:41:46;1.17;;;0.40;;
61091;SDS011;46975;51.898;11.444;2022-12-29T13:44:20;1.80;;;1.00;;
61091;SDS011;46975;51.898;11.444;2022-12-29T13:46:47;0.13;;;0.10;;
61091;SDS011;46975;51.898;11.444;2022-12-29T13:51:50;1.40;;;0.90;;
61091;SDS011;46975;51.898;11.444;2022-12-29T13:54:44;3.03;;;1.25;;
61091;SDS011;46975;51.898;11.444;2022-12-29T14:00:03;1.60;;;0.50;;
61091;SDS011;46975;51.898;11.444;2022-12-29T14:05:44;2.25;;;0.30;;
61091;SDS011;46975;51.898;11.444;2022-12-29T14:08:14;1.55;;;0.57;;
61091;SDS011;46975;51.898;11.444;2022-12-29T14:10:49;8.35;;;1.60;;
61091;SDS011;46975;51.898;11.444;2022-12-29T14:13:20;2.97;;;0.77;;
61091;SDS011;46975;51.898;11.444;2022-12-29T14:15:51;1.15;;;0.40;;
61091;SDS011;46975;51.898;11.444;2022-12-29T14:20:55;1.02;;;0.90;;
61091;SDS011;46975;51.898;11.444;2022-12-29T14:36:34;2.58;;;0.52;;
61091;SDS011;46975;51.898;11.444;2022-12-29T14:39:24;1.60;;;1.50;;
61091;SDS011;46975;51.898;11.444;2022-12-29T14:44:50;2.97;;;1.20;;
61091;SDS011;46975;51.898;11.444;2022-12-29T14:47:20;3.15;;;1.38;;
61091;SDS011;46975;51.898;11.444;2022-12-29T14:49:45;2.72;;;0.75;;
61091;SDS011;46975;51.898;11.444;2022-12-29T14:52:16;3.75;;;1.48;;
61091;SDS011;46975;51.898;11.444;2022-12-29T14:57:41;6.43;;;1.92;;
61091;SDS011;46975;51.898;11.444;2022-12-29T15:00:15;2.95;;;0.85;;
61091;SDS011;46975;51.898;11.444;2022-12-29T15:02:44;1.42;;;0.55;;
61091;SDS011;46975;51.898;11.444;2022-12-29T15:05:25;2.13;;;1.35;;
61091;SDS011;46975;51.898;11.444;2022-12-29T15:07:54;6.35;;;2.65;;
61091;SDS011;46975;51.898;11.444;2022-12-29T15:10:23;1.70;;;0.93;;
61091;SDS011;46975;51.898;11.444;2022-12-29T15:12:54;6.35;;;3.53;;
61091;SDS011;46975;51.898;11.444;2022-12-29T15:15:21;1.00;;;0.80;;
61091;SDS011;46975;51.898;11.444;2022-12-29T15:17:49;3.70;;;0.63;;
61091;SDS011;46975;51.898;11.444;2022-12-29T15:20:28;2.33;;;1.20;;
61091;SDS011;46975;51.898;11.444;2022-12-29T15:23:03;1.85;;;0.63;;
61091;SDS011;46975;51.898;11.444;2022-12-29T15:25:36;1.42;;;0.43;;
61091;SDS011;46975;51.898;11.444;2022-12-29T15:28:02;1.98;;;0.77;;
61091;SDS011;46975;51.898;11.444;2022-12-29T15:30:30;1.05;;;0.70;;
61091;SDS011;46975;51.898;11.444;2022-12-29T15:32:55;1.63;;;0.55;;
61091;SDS011;46975;51.898;11.444;2022-12-29T15:35:23;0.98;;;0.40;;
61091;SDS011;46975;51.898;11.444;2022-12-29T15:37:56;0.82;;;0.50;;
61091;SDS011;46975;51.898;11.444;2022-12-29T15:40:32;5.82;;;0.55;;
61091;SDS011;46975;51.898;11.444;2022-12-29T15:43:47;1.65;;;0.30;;
61091;SDS011;46975;51.898;11.444;2022-12-29T15:46:02;1.02;;;0.60;;
61091;SDS011;46975;51.898;11.444;2022-12-29T15:48:28;2.28;;;0.95;;
61091;SDS011;46975;51.898;11.444;2022-12-29T15:50:55;2.30;;;1.08;;
61091;SDS011;46975;51.898;11.444;2022-12-29T15:53:22;5.68;;;3.45;;
61091;SDS011;46975;51.898;11.444;2022-12-29T15:55:53;1.98;;;0.68;;
61091;SDS011;46975;51.898;11.444;2022-12-29T15:58:26;6.05;;;1.63;;
61091;SDS011;46975;51.898;11.444;2022-12-29T16:01:02;5.47;;;1.73;;
61091;SDS011;46975;51.898;11.444;2022-12-29T16:03:30;5.05;;;2.15;;
61091;SDS011;46975;51.898;11.444;2022-12-29T16:06:08;9.45;;;3.65;;
61091;SDS011;46975;51.898;11.444;2022-12-29T16:08:54;6.22;;;1.90;;
61091;SDS011;46975;51.898;11.444;2022-12-29T16:11:42;7.60;;;3.58;;
61091;SDS011;46975;51.898;11.444;2022-12-29T16:14:17;7.30;;;3.53;;
61091;SDS011;46975;51.898;11.444;2022-12-29T16:16:52;7.50;;;3.20;;
61091;SDS011;46975;51.898;11.444;2022-12-29T16:19:24;5.63;;;3.15;;
61091;SDS011;46975;51.898;11.444;2022-12-29T16:21:54;7.03;;;3.10;;
61091;SDS011;46975;51.898;11.444;2022-12-29T16:24:23;5.72;;;2.40;;
61091;SDS011;46975;51.898;11.444;2022-12-29T16:26:59;5.35;;;2.38;;
61091;SDS011;46975;51.898;11.444;2022-12-29T16:29:32;6.63;;;2.55;;
61091;SDS011;46975;51.898;11.444;2022-12-29T16:31:59;1.70;;;1.30;;
61091;SDS011;46975;51.898;11.444;2022-12-29T16:39:25;3.97;;;1.83;;
61091;SDS011;46975;51.898;11.444;2022-12-29T16:41:58;4.63;;;2.33;;
61091;SDS011;46975;51.898;11.444;2022-12-29T16:44:28;10.27;;;4.03;;
61091;SDS011;46975;51.898;11.444;2022-12-29T16:46:59;6.85;;;4.13;;
61091;SDS011;46975;51.898;11.444;2022-12-29T16:49:28;4.72;;;3.13;;
61091;SDS011;46975;51.898;11.444;2022-12-29T16:51:56;12.88;;;6.55;;
61091;SDS011;46975;51.898;11.444;2022-12-29T16:54:32;18.42;;;9.82;;
61091;SDS011;46975;51.898;11.444;2022-12-29T16:57:01;16.83;;;9.07;;
61091;SDS011;46975;51.898;11.444;2022-12-29T16:59:37;9.55;;;5.18;;
61091;SDS011;46975;51.898;11.444;2022-12-29T17:02:10;2.80;;;1.75;;
61091;SDS011;46975;51.898;11.444;2022-12-29T17:04:44;2.35;;;1.50;;
61091;SDS011;46975;51.898;11.444;2022-12-29T17:07:17;3.75;;;1.88;;